createdAt,value
2022-08-30T00:00:05.866Z,25.70
2022-08-30T00:00:38.055Z,25.70
2022-08-30T00:01:03.452Z,25.70
2022-08-30T00:01:21.540Z,25.70
2022-08-30T00:01:33.401Z,25.70
2022-08-30T00:01:45.089Z,25.60
2022-08-30T00:01:57.206Z,25.60
2022-08-30T00:02:08.960Z,25.60
2022-08-30T00:02:20.878Z,25.60
2022-08-30T00:02:33.732Z,25.60
2022-08-30T00:02:45.586Z,25.60
2022-08-30T00:02:57.942Z,25.60
2022-08-30T00:03:10.885Z,25.60
2022-08-30T00:03:22.969Z,25.60
2022-08-30T00:03:37.413Z,25.60
2022-08-30T00:03:49.415Z,25.70
2022-08-30T00:04:01.478Z,25.60
2022-08-30T00:04:13.188Z,25.60
2022-08-30T00:04:26.337Z,25.60
2022-08-30T00:04:38.038Z,25.60
2022-08-30T00:04:49.793Z,25.70
2022-08-30T00:05:02.301Z,25.60
2022-08-30T00:05:16.791Z,25.60
2022-08-30T00:05:29.534Z,25.60
2022-08-30T00:05:42.112Z,25.60
2022-08-30T00:05:54.492Z,25.60
2022-08-30T00:06:09.553Z,25.60
2022-08-30T00:06:21.400Z,25.60
2022-08-30T00:06:33.129Z,25.60
2022-08-30T00:06:44.891Z,25.60
2022-08-30T00:06:56.569Z,25.60
2022-08-30T00:07:08.301Z,25.60
2022-08-30T00:07:20.013Z,25.60
2022-08-30T00:07:31.757Z,25.60
2022-08-30T00:07:43.468Z,25.60
2022-08-30T00:07:55.204Z,25.60
2022-08-30T00:08:06.994Z,25.60
2022-08-30T00:08:18.691Z,25.70
2022-08-30T00:08:30.457Z,25.60
2022-08-30T00:08:42.531Z,25.60
2022-08-30T00:08:54.425Z,25.60
2022-08-30T00:09:06.096Z,25.60
2022-08-30T00:09:17.818Z,25.60
2022-08-30T00:09:29.498Z,25.60
2022-08-30T00:09:41.267Z,25.60
2022-08-30T00:09:52.975Z,25.60
2022-08-30T00:10:05.282Z,25.60
2022-08-30T00:10:17.408Z,25.60
2022-08-30T00:10:29.359Z,25.60
2022-08-30T00:10:43.486Z,25.60
2022-08-30T00:10:55.437Z,25.60
2022-08-30T00:11:10.026Z,25.60
2022-08-30T00:11:23.996Z,25.60
2022-08-30T00:11:35.846Z,25.60
2022-08-30T00:11:47.705Z,25.60
2022-08-30T00:11:59.695Z,25.60
2022-08-30T00:12:11.416Z,25.60
2022-08-30T00:12:23.147Z,25.60
2022-08-30T00:12:36.061Z,25.60
2022-08-30T00:12:49.070Z,25.60
2022-08-30T00:13:00.945Z,25.60
2022-08-30T00:13:13.512Z,25.50
2022-08-30T00:13:25.311Z,25.60
2022-08-30T00:13:37.769Z,25.60
2022-08-30T00:13:50.645Z,25.60
2022-08-30T00:14:02.649Z,25.60
2022-08-30T00:14:14.550Z,25.50
2022-08-30T00:14:27.516Z,25.60
2022-08-30T00:14:39.300Z,25.50
2022-08-30T00:14:50.980Z,25.60
2022-08-30T00:15:04.434Z,25.50
2022-08-30T00:15:16.229Z,25.50
2022-08-30T00:15:29.245Z,25.60
2022-08-30T00:15:41.592Z,25.50
2022-08-30T00:15:53.730Z,25.50
2022-08-30T00:16:06.849Z,25.50
2022-08-30T00:16:19.918Z,25.50
2022-08-30T00:16:31.713Z,25.50
2022-08-30T00:16:43.464Z,25.50
2022-08-30T00:16:55.151Z,25.50
2022-08-30T00:17:06.833Z,25.50
2022-08-30T00:17:19.330Z,25.50
2022-08-30T00:17:31.080Z,25.50
2022-08-30T00:17:43.780Z,25.50
2022-08-30T00:17:55.593Z,25.60
2022-08-30T00:18:07.513Z,25.60
2022-08-30T00:18:19.549Z,25.50
2022-08-30T00:18:31.332Z,25.50
2022-08-30T00:18:43.239Z,25.50
2022-08-30T00:18:55.985Z,25.50
2022-08-30T00:19:07.657Z,25.50
2022-08-30T00:19:19.343Z,25.50
2022-08-30T00:19:31.053Z,25.50
2022-08-30T00:19:43.502Z,25.50
2022-08-30T00:19:55.963Z,25.50
2022-08-30T00:20:09.334Z,25.50
2022-08-30T00:20:23.301Z,25.50
2022-08-30T00:20:35.177Z,25.50
2022-08-30T00:20:48.246Z,25.50
2022-08-30T00:21:00.111Z,25.50
2022-08-30T00:21:12.110Z,25.50
2022-08-30T00:21:23.868Z,25.50
2022-08-30T00:21:35.644Z,25.50
2022-08-30T00:21:47.369Z,25.50
2022-08-30T00:21:59.379Z,25.50
2022-08-30T00:22:11.103Z,25.50
2022-08-30T00:22:23.025Z,25.50
2022-08-30T00:22:34.863Z,25.50
2022-08-30T00:22:46.777Z,25.50
2022-08-30T00:22:58.484Z,25.50
2022-08-30T00:23:10.223Z,25.50
2022-08-30T00:23:22.163Z,25.50
2022-08-30T00:23:34.009Z,25.50
2022-08-30T00:23:45.868Z,25.50
2022-08-30T00:23:57.596Z,25.50
2022-08-30T00:24:09.260Z,25.50
2022-08-30T00:24:21.091Z,25.50
2022-08-30T00:24:32.832Z,25.50
2022-08-30T00:24:44.705Z,25.50
2022-08-30T00:24:56.423Z,25.40
2022-08-30T00:25:08.696Z,25.50
2022-08-30T00:25:20.760Z,25.40
2022-08-30T00:25:32.503Z,25.40
2022-08-30T00:25:44.735Z,25.40
2022-08-30T00:25:56.438Z,25.40
2022-08-30T00:26:08.341Z,25.40
2022-08-30T00:26:20.071Z,25.40
2022-08-30T00:26:31.765Z,25.40
2022-08-30T00:26:43.593Z,25.40
2022-08-30T00:26:55.430Z,25.40
2022-08-30T00:27:07.132Z,25.40
2022-08-30T00:27:18.970Z,25.40
2022-08-30T00:27:30.700Z,25.50
2022-08-30T00:27:43.684Z,25.40
2022-08-30T00:27:55.553Z,25.40
2022-08-30T00:28:07.662Z,25.40
2022-08-30T00:28:19.831Z,25.40
2022-08-30T00:28:33.868Z,25.40
2022-08-30T00:28:45.735Z,25.40
2022-08-30T00:28:57.585Z,25.40
2022-08-30T00:29:09.272Z,25.40
2022-08-30T00:29:21.124Z,25.40
2022-08-30T00:29:32.840Z,25.40
2022-08-30T00:29:44.765Z,25.40
2022-08-30T00:29:56.904Z,25.40
2022-08-30T00:30:09.300Z,25.40
2022-08-30T00:30:21.104Z,25.40
2022-08-30T00:30:32.812Z,25.40
2022-08-30T00:30:44.751Z,25.40
2022-08-30T00:30:56.696Z,25.40
2022-08-30T00:31:08.649Z,25.40
2022-08-30T00:31:20.481Z,25.40
2022-08-30T00:31:32.281Z,25.40
2022-08-30T00:31:44.249Z,25.40
2022-08-30T00:31:56.089Z,25.40
2022-08-30T00:32:07.946Z,25.40
2022-08-30T00:32:21.369Z,25.40
2022-08-30T00:32:33.213Z,25.40
2022-08-30T00:32:45.062Z,25.40
2022-08-30T00:32:56.949Z,25.40
2022-08-30T00:33:09.032Z,25.40
2022-08-30T00:33:21.085Z,25.40
2022-08-30T00:33:32.945Z,25.40
2022-08-30T00:33:45.290Z,25.40
2022-08-30T00:33:57.005Z,25.40
2022-08-30T00:34:08.700Z,25.40
2022-08-30T00:34:20.550Z,25.40
2022-08-30T00:34:32.289Z,25.40
2022-08-30T00:34:44.021Z,25.40
2022-08-30T00:34:55.750Z,25.40
2022-08-30T00:35:09.229Z,25.40
2022-08-30T00:35:21.190Z,25.40
2022-08-30T00:35:33.139Z,25.40
2022-08-30T00:35:45.101Z,25.40
2022-08-30T00:35:56.953Z,25.40
2022-08-30T00:36:08.643Z,25.40
2022-08-30T00:36:21.337Z,25.30
2022-08-30T00:36:33.187Z,25.40
2022-08-30T00:36:45.130Z,25.30
2022-08-30T00:36:57.400Z,25.30
2022-08-30T00:37:09.236Z,25.30
2022-08-30T00:37:21.317Z,25.30
2022-08-30T00:37:33.081Z,25.30
2022-08-30T00:37:44.783Z,25.30
2022-08-30T00:37:56.548Z,25.30
2022-08-30T00:38:08.483Z,25.30
2022-08-30T00:38:20.342Z,25.30
2022-08-30T00:38:32.230Z,25.30
2022-08-30T00:38:43.940Z,25.30
2022-08-30T00:38:55.766Z,25.30
2022-08-30T00:39:07.628Z,25.30
2022-08-30T00:39:19.461Z,25.30
2022-08-30T00:39:31.209Z,25.30
2022-08-30T00:39:43.092Z,25.30
2022-08-30T00:39:54.792Z,25.30
2022-08-30T00:40:07.512Z,25.30
2022-08-30T00:40:20.462Z,25.30
2022-08-30T00:40:41.616Z,25.30
2022-08-30T00:40:53.548Z,25.30
2022-08-30T00:41:05.415Z,25.30
2022-08-30T00:41:17.707Z,25.30
2022-08-30T00:41:29.571Z,25.30
2022-08-30T00:41:41.469Z,25.30
2022-08-30T00:41:53.325Z,25.30
2022-08-30T00:42:05.296Z,25.30
2022-08-30T00:42:17.773Z,25.30
2022-08-30T00:42:29.441Z,25.20
2022-08-30T00:42:42.039Z,25.30
2022-08-30T00:42:58.081Z,25.20
2022-08-30T00:43:17.713Z,25.30
2022-08-30T00:43:32.053Z,25.30
2022-08-30T00:43:44.457Z,25.20
2022-08-30T00:43:56.441Z,25.30
2022-08-30T00:44:08.551Z,25.20
2022-08-30T00:44:20.229Z,25.20
2022-08-30T00:44:32.109Z,25.20
2022-08-30T00:44:44.126Z,25.20
2022-08-30T00:45:10.317Z,25.30
2022-08-30T00:45:34.025Z,25.20
2022-08-30T00:45:45.788Z,25.30
2022-08-30T00:45:57.820Z,25.30
2022-08-30T00:46:10.275Z,25.30
2022-08-30T00:46:22.194Z,25.30
2022-08-30T00:46:34.139Z,25.20
2022-08-30T00:46:45.867Z,25.20
2022-08-30T00:46:57.632Z,25.20
2022-08-30T00:47:09.461Z,25.20
2022-08-30T00:47:21.220Z,25.20
2022-08-30T00:47:33.073Z,25.20
2022-08-30T00:47:44.964Z,25.20
2022-08-30T00:47:56.673Z,25.20
2022-08-30T00:48:08.379Z,25.20
2022-08-30T00:48:20.250Z,25.20
2022-08-30T00:48:32.274Z,25.20
2022-08-30T00:48:45.327Z,25.20
2022-08-30T00:48:57.061Z,25.20
2022-08-30T00:49:09.425Z,25.20
2022-08-30T00:49:21.267Z,25.20
2022-08-30T00:49:33.921Z,25.20
2022-08-30T00:49:47.618Z,25.20
2022-08-30T00:49:59.293Z,25.20
2022-08-30T00:50:11.224Z,25.20
2022-08-30T00:50:25.060Z,25.20
2022-08-30T00:50:40.500Z,25.20
2022-08-30T00:50:54.620Z,25.20
2022-08-30T00:51:07.901Z,25.20
2022-08-30T00:51:20.285Z,25.20
2022-08-30T00:51:33.516Z,25.20
2022-08-30T00:51:45.208Z,25.20
2022-08-30T00:51:57.092Z,25.20
2022-08-30T00:52:09.145Z,25.20
2022-08-30T00:52:21.015Z,25.20
2022-08-30T00:52:32.716Z,25.10
2022-08-30T00:52:45.271Z,25.10
2022-08-30T00:52:59.245Z,25.10
2022-08-30T00:53:13.669Z,25.10
2022-08-30T00:53:29.130Z,25.10
2022-08-30T00:53:42.980Z,25.20
2022-08-30T00:53:55.429Z,25.20
2022-08-30T00:54:07.163Z,25.20
2022-08-30T00:54:19.085Z,25.20
2022-08-30T00:54:31.079Z,25.20
2022-08-30T00:54:44.581Z,25.10
2022-08-30T00:54:56.439Z,25.10
2022-08-30T00:55:08.537Z,25.20
2022-08-30T00:55:20.529Z,25.20
2022-08-30T00:55:33.361Z,25.20
2022-08-30T00:55:45.209Z,25.20
2022-08-30T00:55:57.052Z,25.20
2022-08-30T00:56:08.924Z,25.10
2022-08-30T00:56:21.168Z,25.20
2022-08-30T00:56:32.931Z,25.10
2022-08-30T00:56:45.892Z,25.20
2022-08-30T00:56:57.620Z,25.10
2022-08-30T00:57:10.584Z,25.20
2022-08-30T00:57:22.305Z,25.10
2022-08-30T00:57:35.867Z,25.10
2022-08-30T00:57:47.666Z,25.10
2022-08-30T00:58:02.428Z,25.10
2022-08-30T00:58:21.628Z,25.10
2022-08-30T00:58:37.343Z,25.10
2022-08-30T00:58:52.464Z,25.10
2022-08-30T00:59:04.531Z,25.10
2022-08-30T00:59:16.394Z,25.10
2022-08-30T00:59:29.133Z,25.10
2022-08-30T00:59:42.997Z,25.10
2022-08-30T00:59:54.852Z,25.00
2022-08-30T01:00:07.481Z,25.10
2022-08-30T01:00:19.338Z,25.10
2022-08-30T01:00:31.222Z,25.10
2022-08-30T01:00:43.222Z,25.10
2022-08-30T01:00:55.399Z,25.10
2022-08-30T01:01:07.319Z,25.10
2022-08-30T01:01:19.183Z,25.00
2022-08-30T01:01:34.285Z,25.10
2022-08-30T01:01:46.302Z,25.10
2022-08-30T01:01:58.231Z,25.00
2022-08-30T01:02:10.582Z,25.10
2022-08-30T01:02:22.598Z,25.10
2022-08-30T01:02:34.595Z,25.10
2022-08-30T01:02:46.412Z,25.10
2022-08-30T01:03:00.607Z,25.00
2022-08-30T01:03:12.467Z,25.00
2022-08-30T01:03:24.286Z,25.00
2022-08-30T01:03:36.152Z,25.00
2022-08-30T01:03:48.940Z,25.10
2022-08-30T01:04:00.672Z,25.00
2022-08-30T01:04:15.231Z,25.10
2022-08-30T01:04:27.127Z,25.10
2022-08-30T01:04:40.458Z,25.00
2022-08-30T01:04:52.216Z,25.00
2022-08-30T01:05:04.656Z,25.10
2022-08-30T01:05:16.443Z,25.00
2022-08-30T01:05:28.613Z,25.10
2022-08-30T01:05:40.359Z,25.00
2022-08-30T01:05:52.083Z,25.00
2022-08-30T01:06:04.636Z,25.00
2022-08-30T01:06:16.890Z,25.10
2022-08-30T01:06:32.600Z,25.00
2022-08-30T01:06:44.737Z,25.00
2022-08-30T01:06:56.449Z,25.10
2022-08-30T01:07:08.300Z,25.10
2022-08-30T01:07:20.245Z,25.10
2022-08-30T01:07:32.083Z,25.10
2022-08-30T01:07:43.923Z,25.10
2022-08-30T01:07:55.649Z,25.10
2022-08-30T01:08:07.506Z,25.10
2022-08-30T01:08:22.121Z,25.00
2022-08-30T01:08:33.957Z,25.00
2022-08-30T01:08:46.498Z,25.00
2022-08-30T01:08:58.289Z,25.10
2022-08-30T01:09:10.140Z,25.10
2022-08-30T01:09:22.009Z,25.10
2022-08-30T01:09:35.129Z,25.00
2022-08-30T01:09:47.104Z,25.00
2022-08-30T01:09:58.812Z,25.00
2022-08-30T01:10:11.724Z,25.10
2022-08-30T01:10:23.681Z,25.00
2022-08-30T01:10:35.803Z,25.00
2022-08-30T01:10:47.834Z,25.00
2022-08-30T01:10:59.710Z,25.00
2022-08-30T01:11:12.471Z,25.00
2022-08-30T01:11:24.483Z,25.00
2022-08-30T01:11:37.838Z,25.00
2022-08-30T01:11:49.541Z,25.00
2022-08-30T01:12:01.650Z,25.10
2022-08-30T01:12:13.552Z,25.00
2022-08-30T01:12:29.991Z,25.00
2022-08-30T01:12:41.926Z,25.00
2022-08-30T01:12:53.809Z,25.00
2022-08-30T01:13:05.677Z,25.00
2022-08-30T01:13:17.841Z,25.00
2022-08-30T01:13:29.824Z,25.00
2022-08-30T01:13:41.599Z,25.00
2022-08-30T01:13:53.633Z,25.00
2022-08-30T01:14:05.399Z,25.00
2022-08-30T01:14:17.364Z,25.00
2022-08-30T01:14:29.035Z,25.00
2022-08-30T01:14:40.750Z,25.00
2022-08-30T01:14:52.982Z,25.00
2022-08-30T01:15:05.647Z,25.00
2022-08-30T01:15:17.341Z,25.00
2022-08-30T01:15:32.584Z,25.00
2022-08-30T01:15:45.029Z,25.00
2022-08-30T01:16:00.159Z,25.00
2022-08-30T01:16:12.069Z,25.00
2022-08-30T01:16:25.421Z,25.00
2022-08-30T01:16:39.496Z,25.00
2022-08-30T01:16:51.632Z,25.00
2022-08-30T01:17:03.633Z,25.00
2022-08-30T01:17:16.475Z,25.00
2022-08-30T01:17:29.623Z,25.00
2022-08-30T01:17:44.504Z,24.90
2022-08-30T01:17:56.585Z,24.90
2022-08-30T01:18:10.085Z,24.90
2022-08-30T01:18:24.960Z,24.90
2022-08-30T01:18:37.263Z,24.90
2022-08-30T01:18:52.442Z,24.90
2022-08-30T01:19:04.249Z,24.90
2022-08-30T01:19:56.201Z,24.90
2022-08-30T01:20:10.819Z,24.90
2022-08-30T01:20:28.477Z,24.90
2022-08-30T01:21:17.619Z,24.90
2022-08-30T01:21:40.332Z,24.90
2022-08-30T01:21:54.799Z,24.90
2022-08-30T01:22:51.029Z,24.90
2022-08-30T01:23:05.345Z,24.90
2022-08-30T01:23:18.414Z,24.90
2022-08-30T01:23:30.253Z,24.90
2022-08-30T01:23:43.460Z,24.90
2022-08-30T01:23:56.952Z,24.90
2022-08-30T01:24:08.684Z,24.90
2022-08-30T01:24:20.523Z,24.90
2022-08-30T01:24:32.499Z,24.80
2022-08-30T01:24:47.895Z,24.90
2022-08-30T01:25:00.393Z,24.80
2022-08-30T01:25:12.883Z,24.80
2022-08-30T01:25:28.885Z,24.80
2022-08-30T01:25:42.373Z,24.80
2022-08-30T01:25:54.190Z,24.90
2022-08-30T01:26:06.034Z,24.80
2022-08-30T01:26:19.800Z,24.80
2022-08-30T01:26:33.825Z,24.80
2022-08-30T01:26:45.585Z,24.80
2022-08-30T01:26:57.460Z,24.80
2022-08-30T01:27:09.155Z,24.80
2022-08-30T01:27:21.301Z,24.80
2022-08-30T01:27:33.123Z,24.80
2022-08-30T01:27:48.720Z,24.80
2022-08-30T01:28:03.815Z,24.80
2022-08-30T01:28:21.403Z,24.80
2022-08-30T01:28:33.216Z,24.80
2022-08-30T01:28:48.678Z,24.80
2022-08-30T01:29:03.995Z,24.80
2022-08-30T01:29:19.059Z,24.80
2022-08-30T01:29:30.924Z,24.80
2022-08-30T01:29:44.959Z,24.80
2022-08-30T01:29:57.342Z,24.80
2022-08-30T01:30:10.008Z,24.80
2022-08-30T01:30:23.669Z,24.90
2022-08-30T01:30:35.724Z,24.80
2022-08-30T01:30:47.583Z,24.90
2022-08-30T01:30:59.732Z,24.80
2022-08-30T01:31:11.497Z,24.90
2022-08-30T01:31:23.580Z,24.80
2022-08-30T01:31:37.090Z,24.80
2022-08-30T01:31:49.724Z,24.80
2022-08-30T01:32:01.535Z,24.80
2022-08-30T01:32:20.997Z,24.80
2022-08-30T01:32:33.141Z,24.90
2022-08-30T01:32:46.350Z,24.90
2022-08-30T01:33:00.201Z,24.90
2022-08-30T01:33:12.217Z,24.80
2022-08-30T01:33:24.669Z,24.90
2022-08-30T01:33:38.187Z,24.80
2022-08-30T01:33:51.277Z,24.80
2022-08-30T01:34:05.166Z,24.90
2022-08-30T01:34:17.078Z,24.90
2022-08-30T01:34:28.870Z,24.90
2022-08-30T01:34:41.016Z,24.80
2022-08-30T01:34:52.755Z,24.80
2022-08-30T01:35:04.671Z,24.80
2022-08-30T01:35:18.087Z,24.80
2022-08-30T01:35:33.553Z,24.80
2022-08-30T01:35:56.363Z,24.90
2022-08-30T01:36:13.223Z,24.80
2022-08-30T01:36:25.100Z,24.80
2022-08-30T01:36:37.849Z,24.90
2022-08-30T01:36:56.478Z,24.80
2022-08-30T01:37:08.338Z,24.80
2022-08-30T01:37:22.508Z,24.80
2022-08-30T01:37:34.376Z,24.80
2022-08-30T01:37:46.065Z,24.80
2022-08-30T01:37:57.748Z,24.80
2022-08-30T01:38:09.643Z,24.80
2022-08-30T01:38:23.665Z,24.80
2022-08-30T01:38:39.105Z,24.80
2022-08-30T01:38:57.499Z,24.80
2022-08-30T01:39:09.930Z,24.80
2022-08-30T01:39:21.912Z,24.80
2022-08-30T01:39:33.601Z,24.80
2022-08-30T01:39:45.698Z,24.80
2022-08-30T01:39:57.680Z,24.80
2022-08-30T01:40:10.024Z,24.80
2022-08-30T01:40:22.132Z,24.80
2022-08-30T01:40:33.882Z,24.80
2022-08-30T01:40:45.766Z,24.80
2022-08-30T01:41:01.430Z,24.80
2022-08-30T01:41:16.847Z,24.80
2022-08-30T01:41:31.294Z,24.80
2022-08-30T01:41:43.613Z,24.80
2022-08-30T01:41:55.471Z,24.70
2022-08-30T01:42:07.444Z,24.80
2022-08-30T01:42:19.212Z,24.70
2022-08-30T01:42:30.904Z,24.80
2022-08-30T01:42:42.637Z,24.70
2022-08-30T01:42:54.644Z,24.80
2022-08-30T01:43:06.962Z,24.70
2022-08-30T01:43:19.125Z,24.70
2022-08-30T01:43:30.822Z,24.70
2022-08-30T01:43:42.689Z,24.70
2022-08-30T01:43:55.859Z,24.70
2022-08-30T01:44:10.368Z,24.70
2022-08-30T01:44:22.211Z,24.70
2022-08-30T01:44:34.083Z,24.70
2022-08-30T01:44:46.705Z,24.70
2022-08-30T01:44:58.396Z,24.70
2022-08-30T01:45:10.658Z,24.70
2022-08-30T01:45:22.574Z,24.70
2022-08-30T01:45:34.429Z,24.70
2022-08-30T01:45:46.434Z,24.70
2022-08-30T01:45:58.370Z,24.70
2022-08-30T01:46:11.913Z,24.70
2022-08-30T01:46:26.708Z,24.70
2022-08-30T01:46:42.223Z,24.70
2022-08-30T01:46:54.664Z,24.70
2022-08-30T01:47:06.617Z,24.70
2022-08-30T01:47:18.653Z,24.70
2022-08-30T01:47:30.393Z,24.70
2022-08-30T01:47:42.560Z,24.70
2022-08-30T01:47:54.260Z,24.70
2022-08-30T01:48:06.722Z,24.70
2022-08-30T01:48:18.554Z,24.70
2022-08-30T01:48:31.129Z,24.70
2022-08-30T01:48:50.209Z,24.70
2022-08-30T01:49:09.063Z,24.70
2022-08-30T01:49:27.553Z,24.60
2022-08-30T01:49:39.896Z,24.70
2022-08-30T01:49:51.639Z,24.70
2022-08-30T01:50:04.904Z,24.60
2022-08-30T01:50:16.851Z,24.60
2022-08-30T01:50:28.884Z,24.70
2022-08-30T01:50:41.139Z,24.70
2022-08-30T01:50:53.365Z,24.60
2022-08-30T01:51:05.712Z,24.70
2022-08-30T01:51:17.884Z,24.70
2022-08-30T01:51:29.705Z,24.70
2022-08-30T01:51:41.592Z,24.60
2022-08-30T01:52:00.961Z,24.60
2022-08-30T01:52:13.431Z,24.60
2022-08-30T01:52:25.726Z,24.60
2022-08-30T01:52:38.879Z,24.60
2022-08-30T01:52:50.556Z,24.60
2022-08-30T01:53:02.401Z,24.60
2022-08-30T01:53:14.150Z,24.60
2022-08-30T01:53:26.334Z,24.60
2022-08-30T01:53:40.007Z,24.60
2022-08-30T01:53:51.845Z,24.60
2022-08-30T01:54:04.080Z,24.60
2022-08-30T01:54:16.024Z,24.60
2022-08-30T01:54:28.065Z,24.60
2022-08-30T01:54:48.481Z,24.60
2022-08-30T01:55:00.301Z,24.60
2022-08-30T01:55:12.012Z,24.60
2022-08-30T01:55:24.024Z,24.60
2022-08-30T01:55:36.981Z,24.60
2022-08-30T01:55:48.683Z,24.60
2022-08-30T01:56:00.586Z,24.60
2022-08-30T01:56:12.882Z,24.60
2022-08-30T01:56:25.356Z,24.60
2022-08-30T01:56:37.101Z,24.60
2022-08-30T01:56:48.958Z,24.60
2022-08-30T01:57:00.658Z,24.60
2022-08-30T01:57:15.047Z,24.60
2022-08-30T01:57:29.716Z,24.60
2022-08-30T01:57:41.744Z,24.60
2022-08-30T01:57:53.573Z,24.60
2022-08-30T01:58:05.416Z,24.60
2022-08-30T01:58:17.180Z,24.60
2022-08-30T01:58:29.011Z,24.60
2022-08-30T01:58:40.714Z,24.60
2022-08-30T01:58:52.508Z,24.60
2022-08-30T01:59:04.370Z,24.60
2022-08-30T01:59:16.253Z,24.60
2022-08-30T01:59:28.060Z,24.60
2022-08-30T01:59:40.512Z,24.60
2022-08-30T01:59:52.851Z,24.60
2022-08-30T02:00:08.351Z,24.60
2022-08-30T02:00:20.061Z,24.60
2022-08-30T02:00:32.343Z,24.60
2022-08-30T02:00:44.228Z,24.50
2022-08-30T02:00:56.353Z,24.60
2022-08-30T02:01:09.631Z,24.60
2022-08-30T02:01:23.667Z,24.60
2022-08-30T02:01:36.988Z,24.60
2022-08-30T02:01:48.966Z,24.60
2022-08-30T02:02:00.632Z,24.60
2022-08-30T02:02:12.468Z,24.60
2022-08-30T02:02:26.044Z,24.60
2022-08-30T02:02:37.740Z,24.60
2022-08-30T02:02:49.465Z,24.60
2022-08-30T02:03:01.150Z,24.60
2022-08-30T02:03:12.861Z,24.60
2022-08-30T02:03:26.395Z,24.60
2022-08-30T02:03:39.272Z,24.60
2022-08-30T02:03:51.255Z,24.60
2022-08-30T02:04:03.824Z,24.60
2022-08-30T02:04:15.584Z,24.60
2022-08-30T02:04:27.280Z,24.60
2022-08-30T02:04:39.124Z,24.60
2022-08-30T02:04:51.950Z,24.60
2022-08-30T02:05:03.987Z,24.60
2022-08-30T02:05:16.292Z,24.60
2022-08-30T02:05:28.153Z,24.60
2022-08-30T02:05:39.828Z,24.60
2022-08-30T02:05:51.850Z,24.60
2022-08-30T02:06:07.656Z,24.60
2022-08-30T02:06:19.779Z,24.60
2022-08-30T02:06:31.625Z,24.60
2022-08-30T02:06:44.493Z,24.60
2022-08-30T02:06:56.447Z,24.60
2022-08-30T02:07:08.298Z,24.60
2022-08-30T02:07:21.037Z,24.60
2022-08-30T02:07:32.873Z,24.60
2022-08-30T02:07:44.576Z,24.60
2022-08-30T02:07:56.573Z,24.60
2022-08-30T02:08:08.405Z,24.60
2022-08-30T02:08:20.115Z,24.60
2022-08-30T02:08:31.912Z,24.60
2022-08-30T02:08:46.449Z,24.60
2022-08-30T02:08:58.634Z,24.60
2022-08-30T02:09:11.634Z,24.50
2022-08-30T02:09:23.521Z,24.60
2022-08-30T02:09:35.246Z,24.60
2022-08-30T02:09:47.144Z,24.60
2022-08-30T02:09:59.076Z,24.60
2022-08-30T02:10:10.932Z,24.50
2022-08-30T02:10:22.910Z,24.50
2022-08-30T02:10:34.771Z,24.50
2022-08-30T02:10:46.460Z,24.50
2022-08-30T02:11:00.183Z,24.50
2022-08-30T02:11:12.268Z,24.50
2022-08-30T02:11:23.965Z,24.50
2022-08-30T02:11:35.952Z,24.50
2022-08-30T02:11:48.428Z,24.50
2022-08-30T02:12:00.289Z,24.50
2022-08-30T02:12:12.119Z,24.50
2022-08-30T02:12:23.851Z,24.50
2022-08-30T02:12:35.700Z,24.50
2022-08-30T02:12:47.744Z,24.50
2022-08-30T02:12:59.494Z,24.50
2022-08-30T02:13:11.377Z,24.50
2022-08-30T02:13:23.687Z,24.50
2022-08-30T02:13:37.362Z,24.50
2022-08-30T02:13:49.293Z,24.50
2022-08-30T02:14:00.995Z,24.50
2022-08-30T02:14:12.821Z,24.50
2022-08-30T02:14:24.495Z,24.50
2022-08-30T02:14:37.027Z,24.50
2022-08-30T02:14:48.900Z,24.50
2022-08-30T02:15:00.891Z,24.50
2022-08-30T02:15:13.420Z,24.50
2022-08-30T02:15:25.900Z,24.50
2022-08-30T02:15:41.390Z,24.50
2022-08-30T02:15:56.640Z,24.50
2022-08-30T02:16:09.400Z,24.50
2022-08-30T02:16:24.942Z,24.50
2022-08-30T02:16:36.719Z,24.50
2022-08-30T02:16:48.787Z,24.50
2022-08-30T02:17:02.688Z,24.50
2022-08-30T02:17:14.744Z,24.50
2022-08-30T02:17:26.713Z,24.50
2022-08-30T02:17:38.580Z,24.50
2022-08-30T02:17:50.440Z,24.50
2022-08-30T02:18:02.336Z,24.50
2022-08-30T02:18:14.014Z,24.50
2022-08-30T02:18:26.071Z,24.50
2022-08-30T02:18:39.352Z,24.40
2022-08-30T02:18:52.255Z,24.40
2022-08-30T02:19:03.938Z,24.50
2022-08-30T02:19:15.805Z,24.50
2022-08-30T02:19:27.659Z,24.40
2022-08-30T02:19:39.520Z,24.40
2022-08-30T02:19:51.275Z,24.50
2022-08-30T02:20:03.369Z,24.40
2022-08-30T02:20:15.233Z,24.50
2022-08-30T02:20:27.028Z,24.50
2022-08-30T02:20:39.954Z,24.50
2022-08-30T02:20:51.828Z,24.50
2022-08-30T02:21:03.765Z,24.50
2022-08-30T02:21:15.644Z,24.40
2022-08-30T02:21:30.155Z,24.50
2022-08-30T02:21:42.998Z,24.40
2022-08-30T02:21:54.843Z,24.50
2022-08-30T02:22:06.980Z,24.40
2022-08-30T02:22:20.849Z,24.50
2022-08-30T02:22:32.811Z,24.40
2022-08-30T02:22:49.389Z,24.40
2022-08-30T02:23:01.662Z,24.40
2022-08-30T02:23:13.477Z,24.40
2022-08-30T02:23:25.457Z,24.40
2022-08-30T02:23:37.150Z,24.50
2022-08-30T02:23:48.941Z,24.40
2022-08-30T02:24:00.649Z,24.40
2022-08-30T02:24:12.675Z,24.50
2022-08-30T02:24:24.379Z,24.50
2022-08-30T02:24:36.091Z,24.40
2022-08-30T02:24:47.989Z,24.40
2022-08-30T02:24:59.733Z,24.40
2022-08-30T02:25:20.698Z,24.40
2022-08-30T02:25:32.729Z,24.40
2022-08-30T02:25:44.764Z,24.40
2022-08-30T02:25:56.781Z,24.40
2022-08-30T02:26:08.949Z,24.40
2022-08-30T02:26:21.636Z,24.40
2022-08-30T02:26:33.489Z,24.40
2022-08-30T02:26:45.422Z,24.40
2022-08-30T02:26:57.179Z,24.40
2022-08-30T02:27:09.027Z,24.40
2022-08-30T02:27:20.882Z,24.40
2022-08-30T02:27:32.694Z,24.40
2022-08-30T02:27:44.545Z,24.40
2022-08-30T02:27:56.392Z,24.40
2022-08-30T02:28:08.602Z,24.40
2022-08-30T02:28:20.544Z,24.50
2022-08-30T02:28:32.236Z,24.40
2022-08-30T02:28:50.044Z,24.50
2022-08-30T02:29:02.583Z,24.40
2022-08-30T02:29:14.301Z,24.50
2022-08-30T02:29:26.179Z,24.40
2022-08-30T02:29:38.013Z,24.40
2022-08-30T02:29:49.939Z,24.40
2022-08-30T02:30:01.857Z,24.40
2022-08-30T02:30:13.952Z,24.40
2022-08-30T02:30:26.172Z,24.40
2022-08-30T02:30:38.198Z,24.50
2022-08-30T02:30:49.980Z,24.40
2022-08-30T02:31:01.811Z,24.40
2022-08-30T02:31:13.757Z,24.50
2022-08-30T02:31:25.679Z,24.40
2022-08-30T02:31:37.549Z,24.40
2022-08-30T02:31:49.227Z,24.50
2022-08-30T02:32:00.962Z,24.40
2022-08-30T02:32:12.790Z,24.40
2022-08-30T02:32:24.626Z,24.40
2022-08-30T02:32:36.472Z,24.40
2022-08-30T02:32:48.364Z,24.40
2022-08-30T02:33:00.419Z,24.40
2022-08-30T02:33:12.330Z,24.40
2022-08-30T02:33:24.145Z,24.40
2022-08-30T02:33:36.730Z,24.40
2022-08-30T02:33:53.097Z,24.40
2022-08-30T02:34:07.280Z,24.40
2022-08-30T02:34:20.015Z,24.30
2022-08-30T02:34:31.733Z,24.40
2022-08-30T02:34:44.685Z,24.40
2022-08-30T02:34:56.394Z,24.30
2022-08-30T02:35:08.728Z,24.30
2022-08-30T02:35:20.407Z,24.40
2022-08-30T02:35:32.130Z,24.30
2022-08-30T02:35:43.886Z,24.30
2022-08-30T02:35:56.369Z,24.30
2022-08-30T02:36:08.464Z,24.30
2022-08-30T02:36:20.930Z,24.30
2022-08-30T02:36:32.661Z,24.40
2022-08-30T02:36:44.812Z,24.30
2022-08-30T02:36:56.566Z,24.30
2022-08-30T02:37:09.201Z,24.30
2022-08-30T02:37:21.194Z,24.40
2022-08-30T02:37:32.895Z,24.30
2022-08-30T02:37:44.575Z,24.30
2022-08-30T02:37:56.292Z,24.40
2022-08-30T02:38:08.001Z,24.30
2022-08-30T02:38:20.207Z,24.40
2022-08-30T02:38:32.201Z,24.30
2022-08-30T02:38:44.137Z,24.40
2022-08-30T02:38:55.927Z,24.40
2022-08-30T02:39:09.032Z,24.40
2022-08-30T02:39:20.770Z,24.30
2022-08-30T02:39:32.660Z,24.30
2022-08-30T02:39:44.569Z,24.30
2022-08-30T02:39:56.567Z,24.30
2022-08-30T02:40:10.009Z,24.30
2022-08-30T02:40:22.456Z,24.30
2022-08-30T02:40:34.347Z,24.40
2022-08-30T02:40:46.183Z,24.30
2022-08-30T02:40:57.976Z,24.40
2022-08-30T02:41:09.655Z,24.40
2022-08-30T02:41:23.331Z,24.30
2022-08-30T02:41:35.113Z,24.30
2022-08-30T02:41:46.809Z,24.30
2022-08-30T02:41:59.977Z,24.30
2022-08-30T02:42:11.673Z,24.30
2022-08-30T02:42:23.523Z,24.30
2022-08-30T02:42:35.219Z,24.30
2022-08-30T02:42:46.907Z,24.30
2022-08-30T02:42:58.639Z,24.30
2022-08-30T02:43:10.989Z,24.30
2022-08-30T02:43:22.788Z,24.30
2022-08-30T02:43:34.493Z,24.30
2022-08-30T02:43:46.551Z,24.30
2022-08-30T02:44:00.433Z,24.30
2022-08-30T02:44:12.377Z,24.30